createdAt,value
2022-12-08T00:01:07.455Z,99405.25
2022-12-08T00:03:35.066Z,99406.16
2022-12-08T00:06:21.853Z,99408.13
2022-12-08T00:09:07.340Z,99410.72
2022-12-08T00:11:34.055Z,99411.56
2022-12-08T00:14:01.141Z,99405.56
2022-12-08T00:16:30.146Z,99407.34
2022-12-08T00:18:56.723Z,99403.09
2022-12-08T00:21:24.453Z,99402.25
2022-12-08T00:23:51.027Z,99404.06
2022-12-08T00:26:17.599Z,99398.03
2022-12-08T00:28:44.180Z,99403.31
2022-12-08T00:31:11.942Z,99392.97
2022-12-08T00:33:38.850Z,99391.25
2022-12-08T00:36:10.113Z,99392.19
2022-12-08T00:38:38.098Z,99396.53
2022-12-08T00:41:11.910Z,99402.63
2022-12-08T00:43:38.545Z,99407.03
2022-12-08T00:46:07.462Z,99406.22
2022-12-08T00:48:34.740Z,99416.59
2022-12-08T00:51:01.421Z,99413.16
2022-12-08T00:53:28.199Z,99414.97
2022-12-08T00:55:54.761Z,99416.72
2022-12-08T00:58:21.432Z,99414.97
2022-12-08T01:00:48.049Z,99415.09
2022-12-08T01:03:14.761Z,99419.31
2022-12-08T01:05:41.376Z,99407.34
2022-12-08T01:08:08.846Z,99415.03
2022-12-08T01:10:36.818Z,99418.59
2022-12-08T01:13:03.890Z,99414.22
2022-12-08T01:15:30.537Z,99411.56
2022-12-08T01:17:57.132Z,99418.56
2022-12-08T01:20:23.784Z,99412.50
2022-12-08T01:22:50.358Z,99411.69
2022-12-08T01:25:16.963Z,99416.81
2022-12-08T01:27:43.540Z,99409.00
2022-12-08T01:30:10.630Z,99408.00
2022-12-08T01:32:37.251Z,99408.03
2022-12-08T01:35:03.934Z,99401.03
2022-12-08T01:37:30.589Z,99404.41
2022-12-08T01:39:57.162Z,99401.75
2022-12-08T01:42:25.523Z,99409.50
2022-12-08T01:45:04.431Z,99406.03
2022-12-08T01:47:36.604Z,99407.69
2022-12-08T01:50:06.175Z,99403.22
2022-12-08T01:52:39.349Z,99404.88
2022-12-08T01:55:24.338Z,99410.97
2022-12-08T01:57:58.728Z,99402.50
2022-12-08T02:00:25.357Z,99403.31
2022-12-08T02:03:11.188Z,99402.41
2022-12-08T02:05:40.375Z,99398.88
2022-12-08T02:08:10.169Z,99403.22
2022-12-08T02:10:40.171Z,99399.72
2022-12-08T02:13:11.077Z,99406.78
2022-12-08T02:15:55.772Z,99399.91
2022-12-08T02:18:34.505Z,99402.56
2022-12-08T02:21:11.985Z,99407.00
2022-12-08T02:23:54.047Z,99400.94
2022-12-08T02:26:57.990Z,99401.84
2022-12-08T02:30:01.909Z,99398.34
2022-12-08T02:32:56.305Z,99402.66
2022-12-08T02:39:03.051Z,99397.50
2022-12-08T02:41:41.312Z,99404.44
2022-12-08T02:44:30.355Z,99407.06
2022-12-08T02:47:11.429Z,99408.97
2022-12-08T02:49:38.118Z,99402.06
2022-12-08T02:52:28.278Z,99391.66
2022-12-08T02:55:02.289Z,99386.56
2022-12-08T02:57:43.585Z,99387.38
2022-12-08T03:00:13.844Z,99397.66
2022-12-08T03:02:59.398Z,99390.59
2022-12-08T03:06:02.826Z,99393.13
2022-12-08T03:08:48.697Z,99386.19
2022-12-08T03:11:25.820Z,99395.63
2022-12-08T03:13:58.297Z,99385.28
2022-12-08T03:16:28.231Z,99394.81
2022-12-08T03:19:09.660Z,99387.13
2022-12-08T03:21:39.374Z,99388.81
2022-12-08T03:24:09.436Z,99392.41
2022-12-08T03:26:47.357Z,99380.25
2022-12-08T03:29:14.410Z,99374.13
2022-12-08T03:31:48.819Z,99373.28
2022-12-08T03:34:17.353Z,99381.06
2022-12-08T03:36:45.196Z,99388.00
2022-12-08T03:39:11.807Z,99382.84
2022-12-08T03:41:38.419Z,99384.59
2022-12-08T03:44:05.257Z,99388.94
2022-12-08T03:46:31.873Z,99382.06
2022-12-08T03:48:58.633Z,99389.00
2022-12-08T03:51:27.307Z,99394.28
2022-12-08T03:53:54.154Z,99390.13
2022-12-08T03:56:46.900Z,99387.50
2022-12-08T03:59:13.461Z,99391.00
2022-12-08T04:01:40.077Z,99385.84
2022-12-08T04:04:06.714Z,99395.38
2022-12-08T04:06:33.364Z,99390.19
2022-12-08T04:09:00.854Z,99386.81
2022-12-08T04:11:27.416Z,99383.34
2022-12-08T04:13:53.955Z,99385.13
2022-12-08T04:16:25.422Z,99380.78
2022-12-08T04:18:52.550Z,99380.75
2022-12-08T04:21:19.102Z,99373.00
2022-12-08T04:23:46.497Z,99369.59
2022-12-08T04:26:13.770Z,99372.16
2022-12-08T04:28:40.408Z,99370.38
2022-12-08T04:31:07.061Z,99364.34
2022-12-08T04:33:35.258Z,99358.25
2022-12-08T04:36:03.588Z,99360.81
2022-12-08T04:38:30.210Z,99360.81
2022-12-08T04:40:56.872Z,99366.03
2022-12-08T04:43:23.538Z,99366.88
2022-12-08T04:45:50.398Z,99361.72
2022-12-08T04:48:17.579Z,99361.72
2022-12-08T04:50:45.307Z,99359.16
2022-12-08T04:53:13.234Z,99361.75
2022-12-08T04:55:44.906Z,99351.38
2022-12-08T04:58:17.324Z,99346.09
2022-12-08T05:00:44.255Z,99350.41
2022-12-08T05:03:11.245Z,99353.84
2022-12-08T05:05:38.079Z,99348.53
2022-12-08T05:08:05.318Z,99351.06
2022-12-08T05:10:32.854Z,99346.72
2022-12-08T05:13:00.167Z,99342.34
2022-12-08T05:15:26.904Z,99346.63
2022-12-08T05:17:53.612Z,99338.78
2022-12-08T05:20:21.899Z,99343.09
2022-12-08T05:22:48.485Z,99344.75
2022-12-08T05:25:15.107Z,99344.72
2022-12-08T05:27:42.152Z,99344.66
2022-12-08T05:30:09.014Z,99342.03
2022-12-08T05:32:35.642Z,99335.97
2022-12-08T05:35:02.247Z,99333.28
2022-12-08T05:37:28.915Z,99330.69
2022-12-08T05:39:55.501Z,99334.16
2022-12-08T05:42:24.899Z,99329.81
2022-12-08T05:44:52.080Z,99327.13
2022-12-08T05:47:18.721Z,99329.63
2022-12-08T05:49:45.812Z,99326.94
2022-12-08T05:52:12.381Z,99330.34
2022-12-08T05:54:38.990Z,99332.91
2022-12-08T05:57:05.591Z,99335.47
2022-12-08T05:59:32.224Z,99331.91
2022-12-08T06:01:58.869Z,99333.56
2022-12-08T06:04:25.516Z,99331.78
2022-12-08T06:06:52.509Z,99334.34
2022-12-08T06:09:19.112Z,99328.25
2022-12-08T06:11:47.225Z,99317.81
2022-12-08T06:14:14.042Z,99325.63
2022-12-08T06:16:40.948Z,99327.34
2022-12-08T06:19:07.623Z,99330.88
2022-12-08T06:21:34.296Z,99332.59
2022-12-08T06:24:00.917Z,99330.81
2022-12-08T06:26:27.551Z,99335.19
2022-12-08T06:28:54.207Z,99330.88
2022-12-08T06:31:24.110Z,99325.72
2022-12-08T06:33:51.713Z,99322.31
2022-12-08T06:36:20.571Z,99330.16
2022-12-08T06:38:47.693Z,99325.00
2022-12-08T06:41:14.778Z,99322.47
2022-12-08T06:43:42.606Z,99328.66
2022-12-08T06:46:12.581Z,99326.16
2022-12-08T06:48:39.313Z,99334.00
2022-12-08T06:51:17.672Z,99340.19
2022-12-08T06:53:45.208Z,99340.19
2022-12-08T06:56:13.187Z,99331.56
2022-12-08T06:58:40.028Z,99330.66
2022-12-08T07:01:06.673Z,99333.25
2022-12-08T07:03:33.773Z,99333.25
2022-12-08T07:06:04.024Z,99335.84
2022-12-08T07:08:31.867Z,99333.34
2022-12-08T07:48:14.334Z,99331.72
2022-12-08T07:50:45.267Z,99333.53
2022-12-08T07:53:12.249Z,99346.59
2022-12-08T07:55:42.815Z,99340.63
2022-12-08T07:58:09.768Z,99337.31
2022-12-08T08:00:36.689Z,99337.44
2022-12-08T08:03:03.478Z,99341.88
2022-12-08T08:05:30.394Z,99336.00
2022-12-08T08:07:57.054Z,99332.69
2022-12-08T08:10:23.672Z,99343.34
2022-12-08T08:12:50.305Z,99338.41
2022-12-08T08:15:17.977Z,99349.09
2022-12-08T08:17:44.544Z,99355.31
2022-12-08T08:20:11.599Z,99354.63
2022-12-08T08:22:38.207Z,99347.84
2022-12-08T08:25:05.783Z,99342.81
2022-12-08T08:27:32.365Z,99347.28
2022-12-08T08:29:58.961Z,99352.47
2022-12-08T08:32:25.576Z,99345.75
2022-12-08T08:34:52.355Z,99338.13
2022-12-08T08:37:19.085Z,99343.38
2022-12-08T08:39:45.748Z,99340.84
2022-12-08T08:42:12.315Z,99338.28
2022-12-08T08:44:39.176Z,99336.44
2022-12-08T08:47:05.931Z,99344.34
2022-12-08T08:49:32.628Z,99343.47
2022-12-08T08:51:59.231Z,99335.72
2022-12-08T08:54:25.851Z,99337.41
2022-12-08T08:56:52.803Z,99336.56
2022-12-08T08:59:19.403Z,99331.44
2022-12-08T09:01:46.214Z,99333.31
2022-12-08T09:04:12.869Z,99336.94
2022-12-08T09:06:39.905Z,99326.69
2022-12-08T09:09:06.712Z,99324.03
2022-12-08T09:11:33.365Z,99322.69
2022-12-08T09:14:00.044Z,99322.78
2022-12-08T09:16:27.200Z,99323.91
2022-12-08T09:18:54.006Z,99319.63
2022-12-08T09:21:23.911Z,99317.28
2022-12-08T09:23:53.150Z,99315.66
2022-12-08T09:26:22.484Z,99323.59
2022-12-08T09:28:50.955Z,99317.50
2022-12-08T09:31:19.171Z,99323.66
2022-12-08T09:33:47.619Z,99320.06
2022-12-08T09:36:14.316Z,99313.03
2022-12-08T09:38:41.361Z,99311.38
2022-12-08T09:41:17.896Z,99313.97
2022-12-08T09:44:12.067Z,99311.22
2022-12-08T09:46:39.497Z,99306.78
2022-12-08T09:49:14.190Z,99303.06
2022-12-08T09:51:44.173Z,99304.78
2022-12-08T09:54:37.316Z,99300.50
2022-12-08T09:57:11.151Z,99301.34
2022-12-08T09:59:37.843Z,99300.28
2022-12-08T10:02:21.376Z,99301.25
2022-12-08T10:04:48.339Z,99291.59
2022-12-08T10:07:23.896Z,99298.44
2022-12-08T10:09:56.377Z,99298.19
2022-12-08T10:12:41.687Z,99305.09
2022-12-08T10:15:17.321Z,99294.75
2022-12-08T10:17:49.568Z,99293.81
2022-12-08T10:20:18.712Z,99292.91
2022-12-08T10:22:50.948Z,99293.00
2022-12-08T10:25:22.370Z,99291.31
2022-12-08T10:27:54.160Z,99288.72
2022-12-08T10:30:22.448Z,99280.84
2022-12-08T10:32:51.058Z,99282.59
2022-12-08T10:35:19.613Z,99285.25
2022-12-08T10:38:00.752Z,99278.47
2022-12-08T10:40:30.789Z,99277.78
2022-12-08T10:43:00.157Z,99272.75
2022-12-08T10:45:28.880Z,99271.06
2022-12-08T10:48:00.166Z,99274.47
2022-12-08T10:50:36.700Z,99266.56
2022-12-08T10:53:25.374Z,99265.69
2022-12-08T10:56:05.463Z,99261.31
2022-12-08T10:58:37.410Z,99261.25
2022-12-08T11:01:17.208Z,99253.22
2022-12-08T11:03:59.902Z,99262.03
2022-12-08T11:06:29.174Z,99260.25
2022-12-08T11:08:58.637Z,99258.41
2022-12-08T11:11:47.968Z,99256.63
2022-12-08T11:14:28.905Z,99261.94
2022-12-08T11:17:04.556Z,99246.38
2022-12-08T11:19:31.389Z,99249.75
2022-12-08T11:21:57.955Z,99255.78
2022-12-08T11:24:31.224Z,99238.34
2022-12-08T11:27:04.501Z,99247.94
2022-12-08T11:29:35.528Z,99242.69
2022-12-08T11:32:14.640Z,99245.34
2022-12-08T11:34:41.638Z,99241.00
2022-12-08T11:37:16.843Z,99250.53
2022-12-08T11:39:49.398Z,99244.50
2022-12-08T11:42:20.706Z,99246.16
2022-12-08T11:44:53.064Z,99240.09
2022-12-08T11:47:28.737Z,99241.91
2022-12-08T11:50:18.042Z,99239.16
2022-12-08T11:52:49.907Z,99240.94
2022-12-08T11:55:37.273Z,99241.00
2022-12-08T11:58:21.456Z,99234.91
2022-12-08T12:00:48.295Z,99234.91
2022-12-08T12:03:30.009Z,99231.41
2022-12-08T12:06:38.159Z,99232.53
2022-12-08T12:09:19.696Z,99231.75
2022-12-08T12:12:27.882Z,99222.78
2022-12-08T12:15:33.339Z,99227.19
2022-12-08T12:18:19.897Z,99229.75
2022-12-08T12:20:57.350Z,99229.84
2022-12-08T12:23:39.488Z,99223.69
2022-12-08T12:26:09.061Z,99224.59
2022-12-08T12:29:04.005Z,99233.16
2022-12-08T12:31:37.315Z,99219.19
2022-12-08T12:34:15.385Z,99228.63
2022-12-08T12:36:49.864Z,99234.81
2022-12-08T12:39:20.167Z,99235.75
2022-12-08T12:41:52.850Z,99225.31
2022-12-08T12:44:19.385Z,99229.69
2022-12-08T12:46:48.968Z,99227.06
2022-12-08T12:49:40.290Z,99226.22
2022-12-08T12:52:07.132Z,99220.09
2022-12-08T12:54:33.834Z,99221.88
2022-12-08T12:57:09.834Z,99216.59
2022-12-08T12:59:44.054Z,99217.44
2022-12-08T13:02:31.452Z,99213.94
2022-12-08T13:05:13.342Z,99220.88
2022-12-08T13:07:50.412Z,99213.97
2022-12-08T13:10:22.280Z,99208.69
2022-12-08T13:13:10.754Z,99211.19
2022-12-08T13:15:40.520Z,99204.16
2022-12-08T13:18:19.611Z,99197.16
2022-12-08T13:20:50.793Z,99197.97
2022-12-08T13:23:45.241Z,99200.56
2022-12-08T13:26:25.902Z,99201.38
2022-12-08T13:29:04.297Z,99200.44
2022-12-08T13:31:52.253Z,99199.53
2022-12-08T13:34:55.158Z,99202.09
2022-12-08T13:37:53.942Z,99202.91
2022-12-08T13:40:28.184Z,99199.41
2022-12-08T13:43:20.122Z,99194.22
2022-12-08T13:46:52.559Z,99197.66
2022-12-08T13:57:29.228Z,99189.81
2022-12-08T14:00:14.874Z,99188.06
2022-12-08T14:02:47.858Z,99191.50
2022-12-08T14:05:20.396Z,99193.19
2022-12-08T14:07:55.249Z,99192.25
2022-12-08T14:10:32.356Z,99193.09
2022-12-08T14:13:06.637Z,99196.50
2022-12-08T14:15:37.614Z,99197.38
2022-12-08T14:18:05.941Z,99203.41
2022-12-08T14:20:52.007Z,99191.22
2022-12-08T14:23:21.326Z,99192.84
2022-12-08T14:25:48.540Z,99196.25
2022-12-08T14:28:15.204Z,99192.75
2022-12-08T14:30:41.918Z,99199.63
2022-12-08T14:33:13.805Z,99200.41
2022-12-08T14:35:40.543Z,99200.34
2022-12-08T14:38:18.516Z,99202.84
2022-12-08T14:40:47.757Z,99208.84
2022-12-08T14:43:17.681Z,99213.09
2022-12-08T14:45:44.249Z,99202.66
2022-12-08T14:48:36.473Z,99214.00
2022-12-08T14:51:21.258Z,99204.41
2022-12-08T14:53:59.284Z,99210.56
2022-12-08T14:56:38.134Z,99213.06
2022-12-08T14:59:13.149Z,99205.31
2022-12-08T15:01:40.907Z,99211.44
2022-12-08T15:04:12.567Z,99209.78
2022-12-08T15:07:02.974Z,99208.03
2022-12-08T15:09:44.349Z,99214.03
2022-12-08T15:12:13.674Z,99208.06
2022-12-08T15:15:04.634Z,99211.44
2022-12-08T15:17:40.448Z,99216.66
2022-12-08T15:20:28.761Z,99213.09
2022-12-08T15:22:59.916Z,99207.84
2022-12-08T15:25:26.545Z,99209.50
2022-12-08T15:27:57.237Z,99212.00
2022-12-08T15:30:26.594Z,99222.31
2022-12-08T15:32:54.411Z,99216.16
2022-12-08T15:35:21.444Z,99221.34
2022-12-08T15:37:48.424Z,99221.31
2022-12-08T15:40:21.312Z,99218.69
2022-12-08T15:42:49.020Z,99221.22
2022-12-08T15:45:17.253Z,99216.88
2022-12-08T15:47:45.197Z,99216.84
2022-12-08T15:50:18.134Z,99220.22
2022-12-08T15:52:45.151Z,99214.97
2022-12-08T15:55:16.533Z,99214.91
2022-12-08T16:00:54.299Z,99212.38
2022-12-08T16:04:19.848Z,99218.50
2022-12-08T16:09:15.104Z,99208.13
2022-12-08T16:12:09.869Z,99208.13
2022-12-08T16:17:25.277Z,99211.50
2022-12-08T16:19:51.951Z,99207.13
2022-12-08T16:25:20.310Z,99208.78
2022-12-08T16:28:05.530Z,99207.03
2022-12-08T16:30:35.452Z,99207.00
2022-12-08T16:33:02.082Z,99209.56
2022-12-08T16:35:28.907Z,99207.84
2022-12-08T16:37:55.783Z,99203.56
2022-12-08T16:40:22.475Z,99210.50
2022-12-08T16:42:50.466Z,99210.50
2022-12-08T16:45:26.079Z,99210.47
2022-12-08T16:47:55.497Z,99207.84
2022-12-08T16:50:23.269Z,99207.00
2022-12-08T16:52:55.924Z,99213.06
2022-12-08T16:55:22.534Z,99220.06
2022-12-08T16:57:49.321Z,99213.22
2022-12-08T17:00:20.042Z,99215.06
2022-12-08T17:02:46.762Z,99217.75
2022-12-08T17:05:15.748Z,99204.78
2022-12-08T17:07:44.340Z,99211.75
2022-12-08T17:10:14.050Z,99205.78
2022-12-08T17:12:42.114Z,99204.94
2022-12-08T17:15:13.037Z,99202.28
2022-12-08T17:17:39.902Z,99203.91
2022-12-08T17:20:18.194Z,99202.13
2022-12-08T17:22:45.596Z,99202.09
2022-12-08T17:25:13.879Z,99195.06
2022-12-08T17:27:41.281Z,99201.03
2022-12-08T17:30:09.827Z,99202.63
2022-12-08T17:32:37.962Z,99198.22
2022-12-08T17:35:05.289Z,99198.09
2022-12-08T17:37:34.541Z,99206.59
2022-12-08T17:40:01.487Z,99209.09
2022-12-08T17:42:28.094Z,99212.50
2022-12-08T17:44:56.282Z,99207.19
2022-12-08T17:47:25.034Z,99211.41
2022-12-08T17:49:53.763Z,99216.47
2022-12-08T17:54:53.186Z,99211.94
2022-12-08T17:57:19.971Z,99211.88
2022-12-08T17:59:46.539Z,99211.84
2022-12-08T18:02:13.260Z,99216.09
2022-12-08T18:04:40.806Z,99214.44
2022-12-08T18:07:07.376Z,99213.59
2022-12-08T18:09:34.077Z,99214.50
2022-12-08T18:12:00.715Z,99210.13
2022-12-08T18:14:27.634Z,99206.66
2022-12-08T18:16:54.319Z,99211.03
2022-12-08T18:19:20.946Z,99207.63
2022-12-08T18:21:47.527Z,99212.75
2022-12-08T18:24:22.890Z,99211.00
2022-12-08T18:26:52.845Z,99211.88
2022-12-08T18:29:20.905Z,99209.28
2022-12-08T18:31:47.749Z,99210.09
2022-12-08T18:34:14.446Z,99208.41
2022-12-08T18:36:41.184Z,99206.66
2022-12-08T18:39:11.045Z,99212.78
2022-12-08T18:41:37.810Z,99207.72
2022-12-08T18:44:04.773Z,99205.13
2022-12-08T18:46:31.582Z,99213.78
2022-12-08T18:49:02.197Z,99206.94
2022-12-08T18:51:28.865Z,99200.84
2022-12-08T18:53:55.450Z,99198.28
2022-12-08T18:56:30.773Z,99201.78
2022-12-08T18:59:03.230Z,99199.19
2022-12-08T19:01:36.314Z,99197.47
2022-12-08T19:04:28.341Z,99202.69
2022-12-08T19:06:53.316Z,99204.47
2022-12-08T19:09:21.786Z,99209.69
2022-12-08T19:11:48.911Z,99200.22
2022-12-08T19:14:15.855Z,99213.22
2022-12-08T19:16:42.476Z,99211.50
2022-12-08T19:19:12.320Z,99209.78
2022-12-08T19:21:44.558Z,99212.38
2022-12-08T19:24:12.919Z,99206.31
2022-12-08T19:26:39.840Z,99202.00
2022-12-08T19:29:06.708Z,99202.88
2022-12-08T19:31:33.413Z,99198.56
2022-12-08T19:34:00.102Z,99203.81
2022-12-08T19:36:27.737Z,99206.44
2022-12-08T19:39:12.942Z,99205.59
2022-12-08T19:41:58.067Z,99203.91
2022-12-08T19:44:46.238Z,99203.13
2022-12-08T19:47:13.294Z,99202.28
2022-12-08T19:49:40.143Z,99197.19
2022-12-08T19:52:08.531Z,99189.38
2022-12-08T19:54:35.901Z,99199.78
2022-12-08T19:57:02.837Z,99196.31
2022-12-08T19:59:30.387Z,99191.13
2022-12-08T20:01:58.567Z,99191.19
2022-12-08T20:04:27.398Z,99193.75
2022-12-08T20:06:55.743Z,99182.47
2022-12-08T20:09:23.170Z,99181.59
2022-12-08T20:11:50.977Z,99185.97
2022-12-08T20:14:21.925Z,99184.25
2022-12-08T20:16:48.825Z,99184.22
2022-12-08T20:19:15.553Z,99180.75
2022-12-08T20:21:42.211Z,99187.69
2022-12-08T20:24:08.909Z,99191.19
2022-12-08T20:26:36.546Z,99187.72
2022-12-08T20:29:03.506Z,99192.03
2022-12-08T20:31:31.326Z,99189.44
2022-12-08T20:33:58.151Z,99196.41
2022-12-08T20:36:24.979Z,99205.94
2022-12-08T20:38:53.026Z,99199.03
2022-12-08T20:41:23.364Z,99208.59
2022-12-08T20:43:51.198Z,99208.59
2022-12-08T20:46:19.425Z,99206.84
2022-12-08T20:48:46.294Z,99199.88
2022-12-08T20:51:18.392Z,99206.81
2022-12-08T20:53:45.377Z,99214.59
2022-12-08T20:56:21.467Z,99205.91
2022-12-08T20:58:49.619Z,99205.84
2022-12-08T21:01:19.513Z,99197.16
2022-12-08T21:03:47.010Z,99204.09
2022-12-08T21:06:14.418Z,99211.88
2022-12-08T21:08:42.797Z,99207.53
2022-12-08T21:11:10.437Z,99211.81
2022-12-08T21:13:37.606Z,99213.53
2022-12-08T21:16:05.412Z,99210.03
2022-12-08T21:18:38.945Z,99206.53
2022-12-08T21:21:10.031Z,99217.78
2022-12-08T21:23:37.224Z,99215.19
2022-12-08T21:26:11.504Z,99211.72
2022-12-08T21:28:38.220Z,99203.88
2022-12-08T21:31:09.157Z,99203.81
2022-12-08T21:33:36.633Z,99201.19
2022-12-08T21:36:14.633Z,99214.16
2022-12-08T21:38:41.513Z,99208.97
2022-12-08T21:41:13.192Z,99214.13
2022-12-08T21:43:41.168Z,99215.81
2022-12-08T21:46:15.435Z,99216.66
2022-12-08T21:48:42.353Z,99217.47
2022-12-08T21:51:09.289Z,99215.78
2022-12-08T21:53:35.877Z,99211.38
2022-12-08T21:56:02.604Z,99215.69
2022-12-08T21:58:32.094Z,99211.34
2022-12-08T22:01:05.296Z,99212.19
2022-12-08T22:03:32.474Z,99208.72
2022-12-08T22:06:11.181Z,99219.06
2022-12-08T22:08:38.408Z,99221.63
2022-12-08T22:11:05.601Z,99212.09
2022-12-08T22:13:36.643Z,99208.56
2022-12-08T22:16:06.036Z,99206.84
2022-12-08T22:18:34.474Z,99207.69
2022-12-08T22:21:01.543Z,99202.50
2022-12-08T22:23:28.912Z,99211.97
2022-12-08T22:26:00.082Z,99211.06
2022-12-08T22:28:28.402Z,99209.34
2022-12-08T22:30:55.041Z,99208.44
2022-12-08T22:33:21.789Z,99212.75
2022-12-08T22:36:02.211Z,99199.75
2022-12-08T22:38:31.506Z,99200.59
2022-12-08T22:40:58.198Z,99210.09
2022-12-08T22:43:25.058Z,99198.84
2022-12-08T22:45:51.938Z,99190.13
2022-12-08T22:48:18.671Z,99200.53
2022-12-08T22:50:45.305Z,99193.63
2022-12-08T22:53:12.825Z,99199.63
2022-12-08T22:55:46.472Z,99197.88
2022-12-08T22:58:13.132Z,99195.22
2022-12-08T23:00:40.129Z,99203.00
2022-12-08T23:03:06.985Z,99201.22
2022-12-08T23:05:38.864Z,99193.38
2022-12-08T23:08:07.291Z,99193.34
2022-12-08T23:10:35.355Z,99196.75
2022-12-08T23:13:04.165Z,99202.84
2022-12-08T23:15:31.600Z,99191.56
2022-12-08T23:17:58.674Z,99197.66
2022-12-08T23:20:25.441Z,99190.78
2022-12-08T23:22:52.079Z,99190.78
2022-12-08T23:25:19.151Z,99194.31
2022-12-08T23:27:46.554Z,99189.16
2022-12-08T23:30:26.184Z,99195.19
2022-12-08T23:32:56.610Z,99200.41
2022-12-08T23:35:23.686Z,99200.41
2022-12-08T23:37:50.745Z,99201.34
2022-12-08T23:40:17.716Z,99203.09
2022-12-08T23:42:44.834Z,99211.88
2022-12-08T23:45:12.065Z,99214.47
2022-12-08T23:47:39.001Z,99211.84
2022-12-08T23:50:07.633Z,99213.53
2022-12-08T23:52:34.840Z,99217.00
2022-12-08T23:55:01.784Z,99220.44
2022-12-08T23:57:28.737Z,99225.59
2022-12-08T23:59:55.403Z,99216.06
